sensor_id;sensor_type;location;lat;lon;timestamp;temperature;humidity
36442;DHT22;64346;50.820;16.274;2023-06-10T00:00:50;14.70;99.90
36442;DHT22;64346;50.820;16.274;2023-06-10T00:03:38;14.70;99.90
36442;DHT22;64346;50.820;16.274;2023-06-10T00:06:07;14.60;99.90
36442;DHT22;64346;50.820;16.274;2023-06-10T00:08:35;14.70;99.90
36442;DHT22;64346;50.820;16.274;2023-06-10T00:11:04;14.70;99.90
36442;DHT22;64346;50.820;16.274;2023-06-10T00:13:34;14.70;99.90
36442;DHT22;64346;50.820;16.274;2023-06-10T00:16:01;14.60;99.90
36442;DHT22;64346;50.820;16.274;2023-06-10T00:18:29;14.60;99.90
36442;DHT22;64346;50.820;16.274;2023-06-10T00:20:58;14.60;99.90
36442;DHT22;64346;50.820;16.274;2023-06-10T00:23:28;14.60;99.90
36442;DHT22;64346;50.820;16.274;2023-06-10T00:25:57;14.60;99.90
36442;DHT22;64346;50.820;16.274;2023-06-10T00:28:25;14.60;99.90
36442;DHT22;64346;50.820;16.274;2023-06-10T00:30:55;14.70;99.90
36442;DHT22;64346;50.820;16.274;2023-06-10T00:33:22;14.80;99.90
36442;DHT22;64346;50.820;16.274;2023-06-10T00:35:52;14.80;99.90
36442;DHT22;64346;50.820;16.274;2023-06-10T00:38:19;14.80;99.90
36442;DHT22;64346;50.820;16.274;2023-06-10T00:40:46;14.90;99.90
36442;DHT22;64346;50.820;16.274;2023-06-10T00:43:18;14.90;99.90
36442;DHT22;64346;50.820;16.274;2023-06-10T00:45:45;14.90;99.90
36442;DHT22;64346;50.820;16.274;2023-06-10T00:48:17;14.90;99.90
36442;DHT22;64346;50.820;16.274;2023-06-10T00:50:47;14.90;99.90
36442;DHT22;64346;50.820;16.274;2023-06-10T00:53:18;15.00;99.90
36442;DHT22;64346;50.820;16.274;2023-06-10T00:55:46;14.90;99.90
36442;DHT22;64346;50.820;16.274;2023-06-10T00:58:14;14.90;99.90
36442;DHT22;64346;50.820;16.274;2023-06-10T01:00:41;14.90;99.90
36442;DHT22;64346;50.820;16.274;2023-06-10T01:03:09;14.90;99.90
36442;DHT22;64346;50.820;16.274;2023-06-10T01:05:37;14.90;99.90
36442;DHT22;64346;50.820;16.274;2023-06-10T01:08:24;14.90;99.90
36442;DHT22;64346;50.820;16.274;2023-06-10T01:11:00;14.90;99.90
36442;DHT22;64346;50.820;16.274;2023-06-10T01:13:29;14.90;99.90
36442;DHT22;64346;50.820;16.274;2023-06-10T01:16:00;15.00;99.90
36442;DHT22;64346;50.820;16.274;2023-06-10T01:18:31;15.00;99.90
36442;DHT22;64346;50.820;16.274;2023-06-10T01:20:58;15.00;99.90
36442;DHT22;64346;50.820;16.274;2023-06-10T01:23:26;15.00;99.90
36442;DHT22;64346;50.820;16.274;2023-06-10T01:26:07;15.00;99.90
36442;DHT22;64346;50.820;16.274;2023-06-10T01:31:19;15.00;99.90
36442;DHT22;64346;50.820;16.274;2023-06-10T01:33:54;14.90;99.90
36442;DHT22;64346;50.820;16.274;2023-06-10T01:36:22;14.90;99.90
36442;DHT22;64346;50.820;16.274;2023-06-10T01:38:54;15.00;99.90
36442;DHT22;64346;50.820;16.274;2023-06-10T01:41:22;14.90;99.90
36442;DHT22;64346;50.820;16.274;2023-06-10T01:43:50;14.90;99.90
36442;DHT22;64346;50.820;16.274;2023-06-10T01:46:17;14.90;99.90
36442;DHT22;64346;50.820;16.274;2023-06-10T01:48:47;14.90;99.90
36442;DHT22;64346;50.820;16.274;2023-06-10T01:51:14;14.90;99.90
36442;DHT22;64346;50.820;16.274;2023-06-10T01:53:44;14.90;99.90
36442;DHT22;64346;50.820;16.274;2023-06-10T01:56:11;14.90;99.90
36442;DHT22;64346;50.820;16.274;2023-06-10T01:58:38;14.90;99.90
36442;DHT22;64346;50.820;16.274;2023-06-10T02:01:06;14.80;99.90
36442;DHT22;64346;50.820;16.274;2023-06-10T02:03:33;14.80;99.90
36442;DHT22;64346;50.820;16.274;2023-06-10T02:06:01;14.80;99.90
36442;DHT22;64346;50.820;16.274;2023-06-10T02:08:28;14.80;99.90
36442;DHT22;64346;50.820;16.274;2023-06-10T02:10:55;14.90;99.90
36442;DHT22;64346;50.820;16.274;2023-06-10T02:13:23;14.90;99.90
36442;DHT22;64346;50.820;16.274;2023-06-10T02:15:50;14.90;99.90
36442;DHT22;64346;50.820;16.274;2023-06-10T02:18:17;14.90;99.90
36442;DHT22;64346;50.820;16.274;2023-06-10T02:20:44;15.00;99.90
36442;DHT22;64346;50.820;16.274;2023-06-10T02:23:12;15.00;99.90
36442;DHT22;64346;50.820;16.274;2023-06-10T02:25:39;15.00;99.90
36442;DHT22;64346;50.820;16.274;2023-06-10T02:28:06;15.00;99.90
36442;DHT22;64346;50.820;16.274;2023-06-10T02:30:34;15.10;99.90
36442;DHT22;64346;50.820;16.274;2023-06-10T02:33:03;15.10;99.90
36442;DHT22;64346;50.820;16.274;2023-06-10T02:35:30;15.10;99.90
36442;DHT22;64346;50.820;16.274;2023-06-10T02:38:00;15.20;99.90
36442;DHT22;64346;50.820;16.274;2023-06-10T02:40:29;15.10;99.90
36442;DHT22;64346;50.820;16.274;2023-06-10T02:42:57;15.10;99.90
36442;DHT22;64346;50.820;16.274;2023-06-10T02:45:25;15.10;99.90
36442;DHT22;64346;50.820;16.274;2023-06-10T02:47:55;15.10;99.90
36442;DHT22;64346;50.820;16.274;2023-06-10T02:50:25;15.10;99.90
36442;DHT22;64346;50.820;16.274;2023-06-10T02:52:52;15.10;99.90
36442;DHT22;64346;50.820;16.274;2023-06-10T02:55:21;15.10;99.90
36442;DHT22;64346;50.820;16.274;2023-06-10T02:57:50;15.10;99.90
36442;DHT22;64346;50.820;16.274;2023-06-10T03:00:17;15.00;99.90
36442;DHT22;64346;50.820;16.274;2023-06-10T03:02:47;15.00;99.90
36442;DHT22;64346;50.820;16.274;2023-06-10T03:05:17;15.10;99.90
36442;DHT22;64346;50.820;16.274;2023-06-10T03:07:47;15.10;99.90
36442;DHT22;64346;50.820;16.274;2023-06-10T03:10:15;15.10;99.90
36442;DHT22;64346;50.820;16.274;2023-06-10T03:12:42;15.10;99.90
36442;DHT22;64346;50.820;16.274;2023-06-10T03:15:09;15.10;99.90
36442;DHT22;64346;50.820;16.274;2023-06-10T03:17:39;15.10;99.90
36442;DHT22;64346;50.820;16.274;2023-06-10T03:20:10;15.20;99.90
36442;DHT22;64346;50.820;16.274;2023-06-10T03:22:40;15.20;99.90
36442;DHT22;64346;50.820;16.274;2023-06-10T03:25:10;15.30;99.90
36442;DHT22;64346;50.820;16.274;2023-06-10T03:27:37;15.30;99.90
36442;DHT22;64346;50.820;16.274;2023-06-10T03:30:07;15.40;99.90
36442;DHT22;64346;50.820;16.274;2023-06-10T03:32:37;15.40;99.90
36442;DHT22;64346;50.820;16.274;2023-06-10T03:35:05;15.50;99.90
36442;DHT22;64346;50.820;16.274;2023-06-10T03:37:33;15.50;99.90
36442;DHT22;64346;50.820;16.274;2023-06-10T03:40:02;15.60;99.90
36442;DHT22;64346;50.820;16.274;2023-06-10T03:42:30;15.60;99.90
36442;DHT22;64346;50.820;16.274;2023-06-10T03:45:00;15.60;99.90
36442;DHT22;64346;50.820;16.274;2023-06-10T03:47:36;15.70;99.90
36442;DHT22;64346;50.820;16.274;2023-06-10T03:50:07;15.70;99.90
36442;DHT22;64346;50.820;16.274;2023-06-10T03:52:40;15.80;99.90
36442;DHT22;64346;50.820;16.274;2023-06-10T03:55:08;15.80;99.90
36442;DHT22;64346;50.820;16.274;2023-06-10T03:57:38;15.80;99.90
36442;DHT22;64346;50.820;16.274;2023-06-10T04:00:08;15.90;99.90
36442;DHT22;64346;50.820;16.274;2023-06-10T04:02:36;15.90;99.90
36442;DHT22;64346;50.820;16.274;2023-06-10T04:05:04;15.90;99.90
36442;DHT22;64346;50.820;16.274;2023-06-10T04:07:31;16.00;99.90
36442;DHT22;64346;50.820;16.274;2023-06-10T04:09:58;16.10;99.90
36442;DHT22;64346;50.820;16.274;2023-06-10T04:12:26;16.10;99.90
36442;DHT22;64346;50.820;16.274;2023-06-10T04:14:53;16.10;99.90
36442;DHT22;64346;50.820;16.274;2023-06-10T04:17:20;16.20;99.90
36442;DHT22;64346;50.820;16.274;2023-06-10T04:19:52;16.30;99.90
36442;DHT22;64346;50.820;16.274;2023-06-10T04:22:23;16.40;99.90
36442;DHT22;64346;50.820;16.274;2023-06-10T04:24:52;16.50;99.90
36442;DHT22;64346;50.820;16.274;2023-06-10T04:27:20;16.60;99.90
36442;DHT22;64346;50.820;16.274;2023-06-10T04:29:49;16.70;99.90
36442;DHT22;64346;50.820;16.274;2023-06-10T04:32:16;16.90;99.90
36442;DHT22;64346;50.820;16.274;2023-06-10T04:34:46;17.00;99.90
36442;DHT22;64346;50.820;16.274;2023-06-10T04:37:14;17.10;99.90
36442;DHT22;64346;50.820;16.274;2023-06-10T04:39:41;17.30;99.90
36442;DHT22;64346;50.820;16.274;2023-06-10T04:42:08;17.30;99.90
36442;DHT22;64346;50.820;16.274;2023-06-10T04:44:38;17.50;99.90
36442;DHT22;64346;50.820;16.274;2023-06-10T04:47:06;17.60;99.90
36442;DHT22;64346;50.820;16.274;2023-06-10T04:49:33;17.80;99.90
36442;DHT22;64346;50.820;16.274;2023-06-10T04:52:03;18.00;99.90
36442;DHT22;64346;50.820;16.274;2023-06-10T04:54:33;18.30;99.90
36442;DHT22;64346;50.820;16.274;2023-06-10T04:57:00;18.60;99.90
36442;DHT22;64346;50.820;16.274;2023-06-10T04:59:27;19.00;99.90
36442;DHT22;64346;50.820;16.274;2023-06-10T05:01:55;19.60;99.90
36442;DHT22;64346;50.820;16.274;2023-06-10T05:04:22;20.50;99.90
36442;DHT22;64346;50.820;16.274;2023-06-10T05:06:50;21.30;99.90
36442;DHT22;64346;50.820;16.274;2023-06-10T05:09:19;21.80;99.90
36442;DHT22;64346;50.820;16.274;2023-06-10T05:11:47;21.90;99.90
36442;DHT22;64346;50.820;16.274;2023-06-10T05:14:14;21.70;99.90
36442;DHT22;64346;50.820;16.274;2023-06-10T05:16:44;21.50;99.90
36442;DHT22;64346;50.820;16.274;2023-06-10T05:19:11;21.30;99.90
36442;DHT22;64346;50.820;16.274;2023-06-10T05:21:39;21.10;99.90
36442;DHT22;64346;50.820;16.274;2023-06-10T05:24:06;20.90;99.90
36442;DHT22;64346;50.820;16.274;2023-06-10T05:26:38;20.70;99.90
36442;DHT22;64346;50.820;16.274;2023-06-10T05:29:05;20.50;99.90
36442;DHT22;64346;50.820;16.274;2023-06-10T05:31:33;20.50;99.90
36442;DHT22;64346;50.820;16.274;2023-06-10T05:34:00;20.50;99.90
36442;DHT22;64346;50.820;16.274;2023-06-10T05:36:28;20.50;99.90
36442;DHT22;64346;50.820;16.274;2023-06-10T05:38:55;20.40;99.90
36442;DHT22;64346;50.820;16.274;2023-06-10T05:41:22;20.40;99.90
36442;DHT22;64346;50.820;16.274;2023-06-10T05:43:49;20.40;99.90
36442;DHT22;64346;50.820;16.274;2023-06-10T05:46:17;20.40;99.90
36442;DHT22;64346;50.820;16.274;2023-06-10T05:48:44;20.40;99.90
36442;DHT22;64346;50.820;16.274;2023-06-10T05:51:12;20.30;99.90
36442;DHT22;64346;50.820;16.274;2023-06-10T05:53:39;20.30;99.90
36442;DHT22;64346;50.820;16.274;2023-06-10T05:56:06;20.50;99.90
36442;DHT22;64346;50.820;16.274;2023-06-10T05:58:36;20.50;99.90
36442;DHT22;64346;50.820;16.274;2023-06-10T06:01:03;20.70;99.90
36442;DHT22;64346;50.820;16.274;2023-06-10T06:03:33;21.00;99.90
36442;DHT22;64346;50.820;16.274;2023-06-10T06:06:03;21.40;99.90
36442;DHT22;64346;50.820;16.274;2023-06-10T06:08:30;21.70;99.90
36442;DHT22;64346;50.820;16.274;2023-06-10T06:10:58;21.80;99.90
36442;DHT22;64346;50.820;16.274;2023-06-10T06:13:25;21.80;99.90
36442;DHT22;64346;50.820;16.274;2023-06-10T06:15:53;21.80;99.90
36442;DHT22;64346;50.820;16.274;2023-06-10T06:18:22;21.80;99.90
36442;DHT22;64346;50.820;16.274;2023-06-10T06:20:50;21.90;99.90
36442;DHT22;64346;50.820;16.274;2023-06-10T06:23:17;22.00;99.90
36442;DHT22;64346;50.820;16.274;2023-06-10T06:25:44;22.30;99.90
36442;DHT22;64346;50.820;16.274;2023-06-10T06:28:11;22.90;99.90
36442;DHT22;64346;50.820;16.274;2023-06-10T06:30:41;23.70;99.90
36442;DHT22;64346;50.820;16.274;2023-06-10T06:33:08;24.10;99.90
36442;DHT22;64346;50.820;16.274;2023-06-10T06:35:41;24.10;99.90
36442;DHT22;64346;50.820;16.274;2023-06-10T06:38:08;24.00;99.90
36442;DHT22;64346;50.820;16.274;2023-06-10T06:40:35;24.00;99.90
36442;DHT22;64346;50.820;16.274;2023-06-10T06:43:02;24.00;99.90
36442;DHT22;64346;50.820;16.274;2023-06-10T06:45:30;24.10;99.90
36442;DHT22;64346;50.820;16.274;2023-06-10T06:48:00;24.60;99.90
36442;DHT22;64346;50.820;16.274;2023-06-10T06:50:27;27.30;99.90
36442;DHT22;64346;50.820;16.274;2023-06-10T06:52:54;30.70;95.50
36442;DHT22;64346;50.820;16.274;2023-06-10T06:55:22;33.50;85.50
36442;DHT22;64346;50.820;16.274;2023-06-10T06:57:49;35.30;76.10
36442;DHT22;64346;50.820;16.274;2023-06-10T07:00:17;35.30;73.10
36442;DHT22;64346;50.820;16.274;2023-06-10T07:02:46;34.60;73.80
36442;DHT22;64346;50.820;16.274;2023-06-10T07:05:14;34.20;72.60
36442;DHT22;64346;50.820;16.274;2023-06-10T07:07:42;33.40;73.00
36442;DHT22;64346;50.820;16.274;2023-06-10T07:10:14;34.10;73.50
36442;DHT22;64346;50.820;16.274;2023-06-10T07:12:41;36.50;70.40
36442;DHT22;64346;50.820;16.274;2023-06-10T07:15:11;38.80;66.40
36442;DHT22;64346;50.820;16.274;2023-06-10T07:17:38;40.10;61.50
36442;DHT22;64346;50.820;16.274;2023-06-10T07:20:06;41.30;59.30
36442;DHT22;64346;50.820;16.274;2023-06-10T07:22:33;42.40;56.50
36442;DHT22;64346;50.820;16.274;2023-06-10T07:25:01;43.10;55.00
36442;DHT22;64346;50.820;16.274;2023-06-10T07:27:28;43.60;54.20
36442;DHT22;64346;50.820;16.274;2023-06-10T07:29:58;44.10;53.60
36442;DHT22;64346;50.820;16.274;2023-06-10T07:32:25;44.00;52.70
36442;DHT22;64346;50.820;16.274;2023-06-10T07:34:55;43.10;53.40
36442;DHT22;64346;50.820;16.274;2023-06-10T07:37:22;41.40;54.30
36442;DHT22;64346;50.820;16.274;2023-06-10T07:39:50;39.60;54.70
36442;DHT22;64346;50.820;16.274;2023-06-10T07:42:17;38.20;57.00
36442;DHT22;64346;50.820;16.274;2023-06-10T07:44:44;37.30;59.00
36442;DHT22;64346;50.820;16.274;2023-06-10T07:47:13;37.00;60.20
36442;DHT22;64346;50.820;16.274;2023-06-10T07:49:41;36.80;61.00
36442;DHT22;64346;50.820;16.274;2023-06-10T07:52:08;36.70;60.90
36442;DHT22;64346;50.820;16.274;2023-06-10T07:54:36;36.60;60.80
36442;DHT22;64346;50.820;16.274;2023-06-10T07:57:05;36.30;61.50
36442;DHT22;64346;50.820;16.274;2023-06-10T07:59:33;37.30;60.90
36442;DHT22;64346;50.820;16.274;2023-06-10T08:02:00;39.30;58.90
36442;DHT22;64346;50.820;16.274;2023-06-10T08:04:28;41.10;54.90
36442;DHT22;64346;50.820;16.274;2023-06-10T08:06:55;42.00;54.10
36442;DHT22;64346;50.820;16.274;2023-06-10T08:09:23;42.70;52.70
36442;DHT22;64346;50.820;16.274;2023-06-10T08:11:52;42.60;52.60
36442;DHT22;64346;50.820;16.274;2023-06-10T08:14:22;42.90;52.40
36442;DHT22;64346;50.820;16.274;2023-06-10T08:16:49;43.00;52.10
36442;DHT22;64346;50.820;16.274;2023-06-10T08:19:17;43.50;51.80
36442;DHT22;64346;50.820;16.274;2023-06-10T08:21:44;44.30;51.30
36442;DHT22;64346;50.820;16.274;2023-06-10T08:24:15;44.90;50.50
36442;DHT22;64346;50.820;16.274;2023-06-10T08:26:42;45.00;49.40
36442;DHT22;64346;50.820;16.274;2023-06-10T08:29:12;44.80;49.10
36442;DHT22;64346;50.820;16.274;2023-06-10T08:31:45;44.60;49.60
36442;DHT22;64346;50.820;16.274;2023-06-10T08:34:12;44.60;49.30
36442;DHT22;64346;50.820;16.274;2023-06-10T08:36:42;43.10;50.50
36442;DHT22;64346;50.820;16.274;2023-06-10T08:39:13;41.40;52.10
36442;DHT22;64346;50.820;16.274;2023-06-10T08:41:43;39.50;54.30
36442;DHT22;64346;50.820;16.274;2023-06-10T08:44:14;38.30;55.90
36442;DHT22;64346;50.820;16.274;2023-06-10T08:46:45;38.20;56.40
36442;DHT22;64346;50.820;16.274;2023-06-10T08:49:17;38.20;55.40
36442;DHT22;64346;50.820;16.274;2023-06-10T08:51:47;37.60;56.30
36442;DHT22;64346;50.820;16.274;2023-06-10T08:54:18;36.70;56.70
36442;DHT22;64346;50.820;16.274;2023-06-10T08:56:49;36.30;57.90
36442;DHT22;64346;50.820;16.274;2023-06-10T08:59:18;35.80;58.60
36442;DHT22;64346;50.820;16.274;2023-06-10T09:01:50;35.40;59.40
36442;DHT22;64346;50.820;16.274;2023-06-10T09:04:18;34.80;60.30
36442;DHT22;64346;50.820;16.274;2023-06-10T09:06:47;34.30;61.70
36442;DHT22;64346;50.820;16.274;2023-06-10T09:09:16;33.50;61.60
36442;DHT22;64346;50.820;16.274;2023-06-10T09:11:43;32.60;63.00
36442;DHT22;64346;50.820;16.274;2023-06-10T09:14:11;31.70;64.90
36442;DHT22;64346;50.820;16.274;2023-06-10T09:16:38;31.10;66.10
36442;DHT22;64346;50.820;16.274;2023-06-10T09:19:07;30.70;66.30
36442;DHT22;64346;50.820;16.274;2023-06-10T09:21:34;30.30;67.60
36442;DHT22;64346;50.820;16.274;2023-06-10T09:24:02;30.00;66.60
36442;DHT22;64346;50.820;16.274;2023-06-10T09:26:30;29.70;68.60
36442;DHT22;64346;50.820;16.274;2023-06-10T09:29:04;29.40;69.50
36442;DHT22;64346;50.820;16.274;2023-06-10T09:31:34;29.40;69.50
36442;DHT22;64346;50.820;16.274;2023-06-10T09:34:12;29.50;69.80
36442;DHT22;64346;50.820;16.274;2023-06-10T09:36:42;29.60;69.90
36442;DHT22;64346;50.820;16.274;2023-06-10T09:39:15;29.50;70.70
36442;DHT22;64346;50.820;16.274;2023-06-10T09:41:44;29.30;72.20
36442;DHT22;64346;50.820;16.274;2023-06-10T09:44:16;29.00;73.30
36442;DHT22;64346;50.820;16.274;2023-06-10T09:46:50;28.70;73.80
36442;DHT22;64346;50.820;16.274;2023-06-10T09:49:20;28.70;74.10
36442;DHT22;64346;50.820;16.274;2023-06-10T09:51:54;28.90;75.20
36442;DHT22;64346;50.820;16.274;2023-06-10T09:54:22;29.10;76.30
36442;DHT22;64346;50.820;16.274;2023-06-10T09:56:51;29.10;71.90
36442;DHT22;64346;50.820;16.274;2023-06-10T09:59:30;29.00;72.00
36442;DHT22;64346;50.820;16.274;2023-06-10T10:01:58;28.80;73.40
36442;DHT22;64346;50.820;16.274;2023-06-10T10:04:26;29.00;76.40
36442;DHT22;64346;50.820;16.274;2023-06-10T10:06:57;29.10;76.40
36442;DHT22;64346;50.820;16.274;2023-06-10T10:09:25;29.20;76.40
36442;DHT22;64346;50.820;16.274;2023-06-10T10:11:57;29.20;77.00
36442;DHT22;64346;50.820;16.274;2023-06-10T10:14:30;29.10;76.40
36442;DHT22;64346;50.820;16.274;2023-06-10T10:17:04;29.30;76.10
36442;DHT22;64346;50.820;16.274;2023-06-10T10:20:09;29.50;78.10
36442;DHT22;64346;50.820;16.274;2023-06-10T10:22:49;29.50;77.20
36442;DHT22;64346;50.820;16.274;2023-06-10T10:25:25;29.20;74.90
36442;DHT22;64346;50.820;16.274;2023-06-10T10:28:06;29.20;76.50
36442;DHT22;64346;50.820;16.274;2023-06-10T10:30:40;29.20;74.50
36442;DHT22;64346;50.820;16.274;2023-06-10T10:33:17;29.00;72.70
36442;DHT22;64346;50.820;16.274;2023-06-10T10:35:52;28.70;73.10
36442;DHT22;64346;50.820;16.274;2023-06-10T10:38:21;28.50;75.70
36442;DHT22;64346;50.820;16.274;2023-06-10T10:40:49;28.30;76.80
36442;DHT22;64346;50.820;16.274;2023-06-10T10:43:17;28.20;77.10
36442;DHT22;64346;50.820;16.274;2023-06-10T10:45:48;28.10;78.50
36442;DHT22;64346;50.820;16.274;2023-06-10T10:48:25;28.10;79.90
36442;DHT22;64346;50.820;16.274;2023-06-10T10:50:57;28.30;81.60
36442;DHT22;64346;50.820;16.274;2023-06-10T10:53:27;28.40;79.60
36442;DHT22;64346;50.820;16.274;2023-06-10T10:56:07;28.30;76.80
36442;DHT22;64346;50.820;16.274;2023-06-10T10:58:37;28.10;76.10
36442;DHT22;64346;50.820;16.274;2023-06-10T11:01:14;27.80;77.10
36442;DHT22;64346;50.820;16.274;2023-06-10T11:03:45;27.70;77.80
36442;DHT22;64346;50.820;16.274;2023-06-10T11:06:15;27.50;75.80
36442;DHT22;64346;50.820;16.274;2023-06-10T11:11:27;27.50;78.80
36442;DHT22;64346;50.820;16.274;2023-06-10T11:14:13;27.40;77.90
36442;DHT22;64346;50.820;16.274;2023-06-10T11:16:53;27.20;79.40
36442;DHT22;64346;50.820;16.274;2023-06-10T11:19:36;27.30;78.80
36442;DHT22;64346;50.820;16.274;2023-06-10T11:22:07;27.00;79.30
36442;DHT22;64346;50.820;16.274;2023-06-10T11:24:35;27.10;80.70
36442;DHT22;64346;50.820;16.274;2023-06-10T11:27:22;27.40;78.30
36442;DHT22;64346;50.820;16.274;2023-06-10T11:32:32;27.60;79.40
36442;DHT22;64346;50.820;16.274;2023-06-10T11:35:04;27.70;76.30
36442;DHT22;64346;50.820;16.274;2023-06-10T11:37:35;27.50;76.90
36442;DHT22;64346;50.820;16.274;2023-06-10T11:40:06;27.40;77.80
36442;DHT22;64346;50.820;16.274;2023-06-10T11:42:39;27.30;78.10
36442;DHT22;64346;50.820;16.274;2023-06-10T11:45:07;27.10;77.30
36442;DHT22;64346;50.820;16.274;2023-06-10T11:47:37;26.90;78.20
36442;DHT22;64346;50.820;16.274;2023-06-10T11:50:04;26.90;77.70
36442;DHT22;64346;50.820;16.274;2023-06-10T11:52:32;26.80;77.80
36442;DHT22;64346;50.820;16.274;2023-06-10T11:54:59;26.60;78.70
36442;DHT22;64346;50.820;16.274;2023-06-10T11:57:27;26.40;80.20
36442;DHT22;64346;50.820;16.274;2023-06-10T11:59:57;26.40;80.10
36442;DHT22;64346;50.820;16.274;2023-06-10T12:02:24;26.40;79.90
36442;DHT22;64346;50.820;16.274;2023-06-10T12:04:54;26.50;79.10
36442;DHT22;64346;50.820;16.274;2023-06-10T12:07:39;26.60;80.10
36442;DHT22;64346;50.820;16.274;2023-06-10T12:10:07;26.40;84.00
36442;DHT22;64346;50.820;16.274;2023-06-10T12:12:55;25.80;84.40
36442;DHT22;64346;50.820;16.274;2023-06-10T12:15:25;25.00;90.70
36442;DHT22;64346;50.820;16.274;2023-06-10T12:17:53;24.80;92.20
36442;DHT22;64346;50.820;16.274;2023-06-10T12:20:28;24.80;94.00
36442;DHT22;64346;50.820;16.274;2023-06-10T12:22:58;24.90;94.60
36442;DHT22;64346;50.820;16.274;2023-06-10T12:25:28;25.00;94.90
36442;DHT22;64346;50.820;16.274;2023-06-10T12:27:59;25.00;95.90
36442;DHT22;64346;50.820;16.274;2023-06-10T12:30:30;25.00;97.40
36442;DHT22;64346;50.820;16.274;2023-06-10T12:33:00;24.90;96.90
36442;DHT22;64346;50.820;16.274;2023-06-10T12:35:31;24.70;96.20
36442;DHT22;64346;50.820;16.274;2023-06-10T12:38:02;24.60;95.00
36442;DHT22;64346;50.820;16.274;2023-06-10T12:40:34;24.30;95.90
36442;DHT22;64346;50.820;16.274;2023-06-10T12:43:03;24.10;97.50
36442;DHT22;64346;50.820;16.274;2023-06-10T12:45:35;24.20;97.90
36442;DHT22;64346;50.820;16.274;2023-06-10T12:48:11;24.20;98.80
36442;DHT22;64346;50.820;16.274;2023-06-10T12:50:42;24.20;98.50
36442;DHT22;64346;50.820;16.274;2023-06-10T12:53:11;24.30;98.20
36442;DHT22;64346;50.820;16.274;2023-06-10T12:55:41;24.60;98.80
36442;DHT22;64346;50.820;16.274;2023-06-10T12:58:08;24.90;98.50
36442;DHT22;64346;50.820;16.274;2023-06-10T13:00:40;25.10;97.10
36442;DHT22;64346;50.820;16.274;2023-06-10T13:03:11;25.20;96.60
36442;DHT22;64346;50.820;16.274;2023-06-10T13:05:39;25.50;95.50
36442;DHT22;64346;50.820;16.274;2023-06-10T13:08:10;25.70;94.40
36442;DHT22;64346;50.820;16.274;2023-06-10T13:10:37;25.40;91.00
36442;DHT22;64346;50.820;16.274;2023-06-10T13:13:08;25.30;88.30
36442;DHT22;64346;50.820;16.274;2023-06-10T13:15:37;25.20;89.20
36442;DHT22;64346;50.820;16.274;2023-06-10T13:18:10;25.00;87.70
36442;DHT22;64346;50.820;16.274;2023-06-10T13:20:40;24.90;88.10
36442;DHT22;64346;50.820;16.274;2023-06-10T13:23:10;24.70;88.70
36442;DHT22;64346;50.820;16.274;2023-06-10T13:25:37;24.50;90.00
36442;DHT22;64346;50.820;16.274;2023-06-10T13:28:04;24.30;91.10
36442;DHT22;64346;50.820;16.274;2023-06-10T13:30:32;24.10;91.40
36442;DHT22;64346;50.820;16.274;2023-06-10T13:32:59;24.20;92.00
36442;DHT22;64346;50.820;16.274;2023-06-10T13:35:29;24.20;91.50
36442;DHT22;64346;50.820;16.274;2023-06-10T13:37:59;24.40;91.80
36442;DHT22;64346;50.820;16.274;2023-06-10T13:40:26;24.50;92.10
36442;DHT22;64346;50.820;16.274;2023-06-10T13:43:00;24.60;92.30
36442;DHT22;64346;50.820;16.274;2023-06-10T13:45:27;24.80;92.00
36442;DHT22;64346;50.820;16.274;2023-06-10T13:47:55;24.80;92.30
36442;DHT22;64346;50.820;16.274;2023-06-10T13:50:22;24.90;92.70
36442;DHT22;64346;50.820;16.274;2023-06-10T13:52:54;24.90;93.20
36442;DHT22;64346;50.820;16.274;2023-06-10T13:55:22;24.90;92.90
36442;DHT22;64346;50.820;16.274;2023-06-10T13:57:49;24.80;93.30
36442;DHT22;64346;50.820;16.274;2023-06-10T14:00:17;24.70;93.00
36442;DHT22;64346;50.820;16.274;2023-06-10T14:02:45;24.60;93.60
36442;DHT22;64346;50.820;16.274;2023-06-10T14:05:12;24.50;93.50
36442;DHT22;64346;50.820;16.274;2023-06-10T14:07:42;24.30;93.50
36442;DHT22;64346;50.820;16.274;2023-06-10T14:10:12;24.30;94.20
36442;DHT22;64346;50.820;16.274;2023-06-10T14:12:39;24.20;94.90
36442;DHT22;64346;50.820;16.274;2023-06-10T14:15:07;24.20;94.90
36442;DHT22;64346;50.820;16.274;2023-06-10T14:17:41;24.30;95.70
36442;DHT22;64346;50.820;16.274;2023-06-10T14:20:09;24.40;95.70
36442;DHT22;64346;50.820;16.274;2023-06-10T14:22:36;24.50;96.30
36442;DHT22;64346;50.820;16.274;2023-06-10T14:25:04;24.50;97.10
36442;DHT22;64346;50.820;16.274;2023-06-10T14:27:34;24.60;98.00
36442;DHT22;64346;50.820;16.274;2023-06-10T14:30:03;24.70;97.10
36442;DHT22;64346;50.820;16.274;2023-06-10T14:32:36;24.80;97.00
36442;DHT22;64346;50.820;16.274;2023-06-10T14:35:03;25.00;97.30
36442;DHT22;64346;50.820;16.274;2023-06-10T14:37:31;25.00;97.50
36442;DHT22;64346;50.820;16.274;2023-06-10T14:39:58;25.00;97.80
36442;DHT22;64346;50.820;16.274;2023-06-10T14:42:26;24.90;96.00
36442;DHT22;64346;50.820;16.274;2023-06-10T14:44:53;24.90;95.70
36442;DHT22;64346;50.820;16.274;2023-06-10T14:47:20;24.80;95.90
36442;DHT22;64346;50.820;16.274;2023-06-10T14:49:48;24.60;95.00
36442;DHT22;64346;50.820;16.274;2023-06-10T14:52:15;24.60;95.80
36442;DHT22;64346;50.820;16.274;2023-06-10T14:54:45;24.50;96.20
36442;DHT22;64346;50.820;16.274;2023-06-10T14:57:16;24.50;96.20
36442;DHT22;64346;50.820;16.274;2023-06-10T14:59:44;24.50;96.10
36442;DHT22;64346;50.820;16.274;2023-06-10T15:02:11;24.40;94.60
36442;DHT22;64346;50.820;16.274;2023-06-10T15:04:38;24.30;94.30
36442;DHT22;64346;50.820;16.274;2023-06-10T15:07:06;24.30;95.20
36442;DHT22;64346;50.820;16.274;2023-06-10T15:09:33;24.30;95.40
36442;DHT22;64346;50.820;16.274;2023-06-10T15:12:01;24.30;95.30
36442;DHT22;64346;50.820;16.274;2023-06-10T15:14:28;24.40;95.40
36442;DHT22;64346;50.820;16.274;2023-06-10T15:16:55;24.50;95.00
36442;DHT22;64346;50.820;16.274;2023-06-10T15:19:22;24.50;94.70
36442;DHT22;64346;50.820;16.274;2023-06-10T15:21:55;24.30;94.40
36442;DHT22;64346;50.820;16.274;2023-06-10T15:24:25;24.20;94.60
36442;DHT22;64346;50.820;16.274;2023-06-10T15:26:52;24.20;95.10
36442;DHT22;64346;50.820;16.274;2023-06-10T15:29:19;24.20;94.80
36442;DHT22;64346;50.820;16.274;2023-06-10T15:31:47;24.10;93.50
36442;DHT22;64346;50.820;16.274;2023-06-10T15:34:16;24.10;94.50
36442;DHT22;64346;50.820;16.274;2023-06-10T15:36:44;24.10;94.40